Aviation Digital Data Service (ADDS)

Output produced by METARs form (1201 UTC 19 January 2019)
found at http://www.aviationweather.gov/metar/data/
 
METAR text: EDDC 191150Z 16008KT CAVOK 01/M05 Q1019 NOSIG
Conditions at: EDDC (DRESDEN/KLOTZSCH, DE) observed 1150 UTC 19 January 2019
Temperature: 1.0°C (34°F)
Dewpoint: -5.0°C (23°F) [RH = 64%]
Pressure (altimeter): 30.09 inches Hg (1019.0 mb)
Winds: from the SSE (160 degrees) at 9 MPH (8 knots; 4.1 m/s)
Visibility: 6 or more miles (10+ km)
Ceiling: ceiling and visibility are OK
Clouds: unknown
Weather: no significant weather observed at this time

METAR text: EDDC 191120Z 17005KT CAVOK 01/M06 Q1019 NOSIG
Conditions at: EDDC (DRESDEN/KLOTZSCH, DE) observed 1120 UTC 19 January 2019
Temperature: 1.0°C (34°F)
Dewpoint: -6.0°C (21°F) [RH = 59%]
Pressure (altimeter): 30.09 inches Hg (1019.0 mb)
Winds: from the S (170 degrees) at 6 MPH (5 knots; 2.6 m/s)
Visibility: 6 or more miles (10+ km)
Ceiling: ceiling and visibility are OK
Clouds: unknown
Weather: no significant weather observed at this time

METAR text: EDDC 191050Z 16004KT 120V190 CAVOK 00/M05 Q1019 NOSIG
Conditions at: EDDC (DRESDEN/KLOTZSCH, DE) observed 1050 UTC 19 January 2019
Temperature: 0.0°C (32°F)
Dewpoint: -5.0°C (23°F) [RH = 69%]
Pressure (altimeter): 30.09 inches Hg (1019.0 mb)
Winds: from the SSE (160 degrees) at 5 MPH (4 knots; 2.1 m/s)
Visibility: 6 or more miles (10+ km)
Ceiling: ceiling and visibility are OK
Clouds: unknown
Weather: no significant weather observed at this time

METAR text: EDDC 191020Z 15004KT 110V170 CAVOK M01/M05 Q1020 NOSIG
Conditions at: EDDC (DRESDEN/KLOTZSCH, DE) observed 1020 UTC 19 January 2019
Temperature: -1.0°C (30°F)
Dewpoint: -5.0°C (23°F) [RH = 74%]
Pressure (altimeter): 30.12 inches Hg (1020.0 mb)
Winds: from the SSE (150 degrees) at 5 MPH (4 knots; 2.1 m/s)
Visibility: 6 or more miles (10+ km)
Ceiling: ceiling and visibility are OK
Clouds: unknown
Weather: no significant weather observed at this time

METAR text: EDDC 190950Z 19003KT 160V220 CAVOK M02/M05 Q1020 NOSIG
Conditions at: EDDC (DRESDEN/KLOTZSCH, DE) observed 0950 UTC 19 January 2019
Temperature: -2.0°C (28°F)
Dewpoint: -5.0°C (23°F) [RH = 80%]
Pressure (altimeter): 30.12 inches Hg (1020.0 mb)
Winds: from the S (190 degrees) at 3 MPH (3 knots; 1.5 m/s)
Visibility: 6 or more miles (10+ km)
Ceiling: ceiling and visibility are OK
Clouds: unknown
Weather: no significant weather observed at this time

METAR text: EDDC 190920Z 15003KT CAVOK M03/M05 Q1020 NOSIG
Conditions at: EDDC (DRESDEN/KLOTZSCH, DE) observed 0920 UTC 19 January 2019
Temperature: -3.0°C (27°F)
Dewpoint: -5.0°C (23°F) [RH = 86%]
Pressure (altimeter): 30.12 inches Hg (1020.0 mb)
Winds: from the SSE (150 degrees) at 3 MPH (3 knots; 1.5 m/s)
Visibility: 6 or more miles (10+ km)
Ceiling: ceiling and visibility are OK
Clouds: unknown
Weather: no significant weather observed at this time

METAR text: EDDC 190850Z 13003KT 100V170 9999 FEW042 M04/M06 Q1020 NOSIG
Conditions at: EDDC (DRESDEN/KLOTZSCH, DE) observed 0850 UTC 19 January 2019
Temperature: -4.0°C (25°F)
Dewpoint: -6.0°C (21°F) [RH = 86%]
Pressure (altimeter): 30.12 inches Hg (1020.0 mb)
Winds: from the SE (130 degrees) at 3 MPH (3 knots; 1.5 m/s)
Visibility: 6 or more miles (10+ km)
Ceiling: at least 12,000 feet AGL
Clouds: few clouds at 4200 feet AGL
Weather: no significant weather observed at this time

METAR text: EDDC 190820Z 16005KT 9999 FEW042 M05/M06 Q1020 NOSIG
Conditions at: EDDC (DRESDEN/KLOTZSCH, DE) observed 0820 UTC 19 January 2019
Temperature: -5.0°C (23°F)
Dewpoint: -6.0°C (21°F) [RH = 93%]
Pressure (altimeter): 30.12 inches Hg (1020.0 mb)
Winds: from the SSE (160 degrees) at 6 MPH (5 knots; 2.6 m/s)
Visibility: 6 or more miles (10+ km)
Ceiling: at least 12,000 feet AGL
Clouds: few clouds at 4200 feet AGL
Weather: no significant weather observed at this time

METAR text: EDDC 190750Z 20004KT 9999 FEW042 M05/M06 Q1020 NOSIG
Conditions at: EDDC (DRESDEN/KLOTZSCH, DE) observed 0750 UTC 19 January 2019
Temperature: -5.0°C (23°F)
Dewpoint: -6.0°C (21°F) [RH = 93%]
Pressure (altimeter): 30.12 inches Hg (1020.0 mb)
Winds: from the SSW (200 degrees) at 5 MPH (4 knots; 2.1 m/s)
Visibility: 6 or more miles (10+ km)
Ceiling: at least 12,000 feet AGL
Clouds: few clouds at 4200 feet AGL
Weather: no significant weather observed at this time

METAR text: EDDC 190720Z 18004KT 9999 FEW042 M06/M07 Q1020 NOSIG
Conditions at: EDDC (DRESDEN/KLOTZSCH, DE) observed 0720 UTC 19 January 2019
Temperature: -6.0°C (21°F)
Dewpoint: -7.0°C (19°F) [RH = 93%]
Pressure (altimeter): 30.12 inches Hg (1020.0 mb)
Winds: from the S (180 degrees) at 5 MPH (4 knots; 2.1 m/s)
Visibility: 6 or more miles (10+ km)
Ceiling: at least 12,000 feet AGL
Clouds: few clouds at 4200 feet AGL
Weather: no significant weather observed at this time

METAR text: EDDC 190650Z 19005KT 9999 FEW040 M06/M07 Q1020 NOSIG
Conditions at: EDDC (DRESDEN/KLOTZSCH, DE) observed 0650 UTC 19 January 2019
Temperature: -6.0°C (21°F)
Dewpoint: -7.0°C (19°F) [RH = 93%]
Pressure (altimeter): 30.12 inches Hg (1020.0 mb)
Winds: from the S (190 degrees) at 6 MPH (5 knots; 2.6 m/s)
Visibility: 6 or more miles (10+ km)
Ceiling: at least 12,000 feet AGL
Clouds: few clouds at 4000 feet AGL
Weather: no significant weather observed at this time

METAR text: EDDC 190620Z 19006KT 9999 FEW040 M06/M07 Q1019 NOSIG
Conditions at: EDDC (DRESDEN/KLOTZSCH, DE) observed 0620 UTC 19 January 2019
Temperature: -6.0°C (21°F)
Dewpoint: -7.0°C (19°F) [RH = 93%]
Pressure (altimeter): 30.09 inches Hg (1019.0 mb)
Winds: from the S (190 degrees) at 7 MPH (6 knots; 3.1 m/s)
Visibility: 6 or more miles (10+ km)
Ceiling: at least 12,000 feet AGL
Clouds: few clouds at 4000 feet AGL
Weather: no significant weather observed at this time

METAR text: EDDC 190550Z 19005KT 9999 SCT040 M05/M07 Q1020 NOSIG
Conditions at: EDDC (DRESDEN/KLOTZSCH, DE) observed 0550 UTC 19 January 2019
Temperature: -5.0°C (23°F)
Dewpoint: -7.0°C (19°F) [RH = 86%]
Pressure (altimeter): 30.12 inches Hg (1020.0 mb)
Winds: from the S (190 degrees) at 6 MPH (5 knots; 2.6 m/s)
Visibility: 6 or more miles (10+ km)
Ceiling: at least 12,000 feet AGL
Clouds: scattered clouds at 4000 feet AGL
Weather: no significant weather observed at this time

METAR text: EDDC 190520Z 18004KT 9999 BKN041 M05/M07 Q1020 NOSIG
Conditions at: EDDC (DRESDEN/KLOTZSCH, DE) observed 0520 UTC 19 January 2019
Temperature: -5.0°C (23°F)
Dewpoint: -7.0°C (19°F) [RH = 86%]
Pressure (altimeter): 30.12 inches Hg (1020.0 mb)
Winds: from the S (180 degrees) at 5 MPH (4 knots; 2.1 m/s)
Visibility: 6 or more miles (10+ km)
Ceiling: 4100 feet AGL
Clouds: broken clouds at 4100 feet AGL
Weather: no significant weather observed at this time

METAR text: EDDC 190450Z 19005KT 9999 BKN042 M05/M06 Q1020 NOSIG
Conditions at: EDDC (DRESDEN/KLOTZSCH, DE) observed 0450 UTC 19 January 2019
Temperature: -5.0°C (23°F)
Dewpoint: -6.0°C (21°F) [RH = 93%]
Pressure (altimeter): 30.12 inches Hg (1020.0 mb)
Winds: from the S (190 degrees) at 6 MPH (5 knots; 2.6 m/s)
Visibility: 6 or more miles (10+ km)
Ceiling: 4200 feet AGL
Clouds: broken clouds at 4200 feet AGL
Weather: no significant weather observed at this time

METAR text: EDDC 190420Z 18004KT 9999 BKN042 M05/M06 Q1020
Conditions at: EDDC (DRESDEN/KLOTZSCH, DE) observed 0420 UTC 19 January 2019
Temperature: -5.0°C (23°F)
Dewpoint: -6.0°C (21°F) [RH = 93%]
Pressure (altimeter): 30.12 inches Hg (1020.0 mb)
Winds: from the S (180 degrees) at 5 MPH (4 knots; 2.1 m/s)
Visibility: 6 or more miles (10+ km)
Ceiling: 4200 feet AGL
Clouds: broken clouds at 4200 feet AGL
Weather: no significant weather observed at this time

METAR text: EDDC 190350Z 19006KT 9999 BKN042 M04/M06 Q1020
Conditions at: EDDC (DRESDEN/KLOTZSCH, DE) observed 0350 UTC 19 January 2019
Temperature: -4.0°C (25°F)
Dewpoint: -6.0°C (21°F) [RH = 86%]
Pressure (altimeter): 30.12 inches Hg (1020.0 mb)
Winds: from the S (190 degrees) at 7 MPH (6 knots; 3.1 m/s)
Visibility: 6 or more miles (10+ km)
Ceiling: 4200 feet AGL
Clouds: broken clouds at 4200 feet AGL
Weather: no significant weather observed at this time

METAR text: EDDC 190320Z 18006KT 9999 BKN042 M05/M06 Q1020
Conditions at: EDDC (DRESDEN/KLOTZSCH, DE) observed 0320 UTC 19 January 2019
Temperature: -5.0°C (23°F)
Dewpoint: -6.0°C (21°F) [RH = 93%]
Pressure (altimeter): 30.12 inches Hg (1020.0 mb)
Winds: from the S (180 degrees) at 7 MPH (6 knots; 3.1 m/s)
Visibility: 6 or more miles (10+ km)
Ceiling: 4200 feet AGL
Clouds: broken clouds at 4200 feet AGL
Weather: no significant weather observed at this time

METAR text: EDDC 190250Z 19007KT 9999 BKN042 M04/M06 Q1020
Conditions at: EDDC (DRESDEN/KLOTZSCH, DE) observed 0250 UTC 19 January 2019
Temperature: -4.0°C (25°F)
Dewpoint: -6.0°C (21°F) [RH = 86%]
Pressure (altimeter): 30.12 inches Hg (1020.0 mb)
Winds: from the S (190 degrees) at 8 MPH (7 knots; 3.6 m/s)
Visibility: 6 or more miles (10+ km)
Ceiling: 4200 feet AGL
Clouds: broken clouds at 4200 feet AGL
Weather: no significant weather observed at this time

METAR text: EDDC 190220Z 19008KT 9999 BKN042 M04/M06 Q1020
Conditions at: EDDC (DRESDEN/KLOTZSCH, DE) observed 0220 UTC 19 January 2019
Temperature: -4.0°C (25°F)
Dewpoint: -6.0°C (21°F) [RH = 86%]
Pressure (altimeter): 30.12 inches Hg (1020.0 mb)
Winds: from the S (190 degrees) at 9 MPH (8 knots; 4.1 m/s)
Visibility: 6 or more miles (10+ km)
Ceiling: 4200 feet AGL
Clouds: broken clouds at 4200 feet AGL
Weather: no significant weather observed at this time

METAR text: EDDC 190150Z 19006KT 9999 BKN042 M04/M06 Q1020
Conditions at: EDDC (DRESDEN/KLOTZSCH, DE) observed 0150 UTC 19 January 2019
Temperature: -4.0°C (25°F)
Dewpoint: -6.0°C (21°F) [RH = 86%]
Pressure (altimeter): 30.12 inches Hg (1020.0 mb)
Winds: from the S (190 degrees) at 7 MPH (6 knots; 3.1 m/s)
Visibility: 6 or more miles (10+ km)
Ceiling: 4200 feet AGL
Clouds: broken clouds at 4200 feet AGL
Weather: no significant weather observed at this time

METAR text: EDDC 190120Z 18005KT 9999 SCT042 M04/M06 Q1020
Conditions at: EDDC (DRESDEN/KLOTZSCH, DE) observed 0120 UTC 19 January 2019
Temperature: -4.0°C (25°F)
Dewpoint: -6.0°C (21°F) [RH = 86%]
Pressure (altimeter): 30.12 inches Hg (1020.0 mb)
Winds: from the S (180 degrees) at 6 MPH (5 knots; 2.6 m/s)
Visibility: 6 or more miles (10+ km)
Ceiling: at least 12,000 feet AGL
Clouds: scattered clouds at 4200 feet AGL
Weather: no significant weather observed at this time

METAR text: EDDC 190050Z 20006KT 9999 SCT042 M04/M06 Q1020
Conditions at: EDDC (DRESDEN/KLOTZSCH, DE) observed 0050 UTC 19 January 2019
Temperature: -4.0°C (25°F)
Dewpoint: -6.0°C (21°F) [RH = 86%]
Pressure (altimeter): 30.12 inches Hg (1020.0 mb)
Winds: from the SSW (200 degrees) at 7 MPH (6 knots; 3.1 m/s)
Visibility: 6 or more miles (10+ km)
Ceiling: at least 12,000 feet AGL
Clouds: scattered clouds at 4200 feet AGL
Weather: no significant weather observed at this time

METAR text: EDDC 190020Z 18006KT 9999 SCT042 M04/M07 Q1020
Conditions at: EDDC (DRESDEN/KLOTZSCH, DE) observed 0020 UTC 19 January 2019
Temperature: -4.0°C (25°F)
Dewpoint: -7.0°C (19°F) [RH = 80%]
Pressure (altimeter): 30.12 inches Hg (1020.0 mb)
Winds: from the S (180 degrees) at 7 MPH (6 knots; 3.1 m/s)
Visibility: 6 or more miles (10+ km)
Ceiling: at least 12,000 feet AGL
Clouds: scattered clouds at 4200 feet AGL
Weather: no significant weather observed at this time

METAR text: EDDC 182350Z 19009KT 9999 SCT044 M04/M06 Q1020
Conditions at: EDDC (DRESDEN/KLOTZSCH, DE) observed 2350 UTC 18 January 2019
Temperature: -4.0°C (25°F)
Dewpoint: -6.0°C (21°F) [RH = 86%]
Pressure (altimeter): 30.12 inches Hg (1020.0 mb)
Winds: from the S (190 degrees) at 10 MPH (9 knots; 4.6 m/s)
Visibility: 6 or more miles (10+ km)
Ceiling: at least 12,000 feet AGL
Clouds: scattered clouds at 4400 feet AGL
Weather: no significant weather observed at this time

METAR text: EDDC 182320Z 22006KT 9999 SCT030 M04/M06 Q1020
Conditions at: EDDC (DRESDEN/KLOTZSCH, DE) observed 2320 UTC 18 January 2019
Temperature: -4.0°C (25°F)
Dewpoint: -6.0°C (21°F) [RH = 86%]
Pressure (altimeter): 30.12 inches Hg (1020.0 mb)
Winds: from the SW (220 degrees) at 7 MPH (6 knots; 3.1 m/s)
Visibility: 6 or more miles (10+ km)
Ceiling: at least 12,000 feet AGL
Clouds: scattered clouds at 3000 feet AGL
Weather: no significant weather observed at this time

METAR text: EDDC 182250Z 22007KT 9999 SCT030 M04/M07 Q1020
Conditions at: EDDC (DRESDEN/KLOTZSCH, DE) observed 2250 UTC 18 January 2019
Temperature: -4.0°C (25°F)
Dewpoint: -7.0°C (19°F) [RH = 80%]
Pressure (altimeter): 30.12 inches Hg (1020.0 mb)
Winds: from the SW (220 degrees) at 8 MPH (7 knots; 3.6 m/s)
Visibility: 6 or more miles (10+ km)
Ceiling: at least 12,000 feet AGL
Clouds: scattered clouds at 3000 feet AGL
Weather: no significant weather observed at this time

METAR text: EDDC 182220Z 23006KT 9999 SCT032 M03/M06 Q1020
Conditions at: EDDC (DRESDEN/KLOTZSCH, DE) observed 2220 UTC 18 January 2019
Temperature: -3.0°C (27°F)
Dewpoint: -6.0°C (21°F) [RH = 80%]
Pressure (altimeter): 30.12 inches Hg (1020.0 mb)
Winds: from the SW (230 degrees) at 7 MPH (6 knots; 3.1 m/s)
Visibility: 6 or more miles (10+ km)
Ceiling: at least 12,000 feet AGL
Clouds: scattered clouds at 3200 feet AGL
Weather: no significant weather observed at this time

METAR text: EDDC 182150Z 22006KT 9999 FEW032 M03/M06 Q1020
Conditions at: EDDC (DRESDEN/KLOTZSCH, DE) observed 2150 UTC 18 January 2019
Temperature: -3.0°C (27°F)
Dewpoint: -6.0°C (21°F) [RH = 80%]
Pressure (altimeter): 30.12 inches Hg (1020.0 mb)
Winds: from the SW (220 degrees) at 7 MPH (6 knots; 3.1 m/s)
Visibility: 6 or more miles (10+ km)
Ceiling: at least 12,000 feet AGL
Clouds: few clouds at 3200 feet AGL
Weather: no significant weather observed at this time

METAR text: EDDC 182120Z 22007KT 9999 FEW032 M04/M06 Q1020
Conditions at: EDDC (DRESDEN/KLOTZSCH, DE) observed 2120 UTC 18 January 2019
Temperature: -4.0°C (25°F)
Dewpoint: -6.0°C (21°F) [RH = 86%]
Pressure (altimeter): 30.12 inches Hg (1020.0 mb)
Winds: from the SW (220 degrees) at 8 MPH (7 knots; 3.6 m/s)
Visibility: 6 or more miles (10+ km)
Ceiling: at least 12,000 feet AGL
Clouds: few clouds at 3200 feet AGL
Weather: no significant weather observed at this time

METAR text: EDDC 182050Z 21007KT 9999 FEW033 M04/M07 Q1020 NOSIG
Conditions at: EDDC (DRESDEN/KLOTZSCH, DE) observed 2050 UTC 18 January 2019
Temperature: -4.0°C (25°F)
Dewpoint: -7.0°C (19°F) [RH = 80%]
Pressure (altimeter): 30.12 inches Hg (1020.0 mb)
Winds: from the SSW (210 degrees) at 8 MPH (7 knots; 3.6 m/s)
Visibility: 6 or more miles (10+ km)
Ceiling: at least 12,000 feet AGL
Clouds: few clouds at 3300 feet AGL
Weather: no significant weather observed at this time

METAR text: EDDC 182020Z 21007KT 9999 FEW033 M04/M06 Q1020 NOSIG
Conditions at: EDDC (DRESDEN/KLOTZSCH, DE) observed 2020 UTC 18 January 2019
Temperature: -4.0°C (25°F)
Dewpoint: -6.0°C (21°F) [RH = 86%]
Pressure (altimeter): 30.12 inches Hg (1020.0 mb)
Winds: from the SSW (210 degrees) at 8 MPH (7 knots; 3.6 m/s)
Visibility: 6 or more miles (10+ km)
Ceiling: at least 12,000 feet AGL
Clouds: few clouds at 3300 feet AGL
Weather: no significant weather observed at this time

METAR text: EDDC 181950Z 21007KT CAVOK M04/M07 Q1020 NOSIG
Conditions at: EDDC (DRESDEN/KLOTZSCH, DE) observed 1950 UTC 18 January 2019
Temperature: -4.0°C (25°F)
Dewpoint: -7.0°C (19°F) [RH = 80%]
Pressure (altimeter): 30.12 inches Hg (1020.0 mb)
Winds: from the SSW (210 degrees) at 8 MPH (7 knots; 3.6 m/s)
Visibility: 6 or more miles (10+ km)
Ceiling: ceiling and visibility are OK
Clouds: unknown
Weather: no significant weather observed at this time

METAR text: EDDC 181920Z 21007KT CAVOK M04/M06 Q1020 NOSIG
Conditions at: EDDC (DRESDEN/KLOTZSCH, DE) observed 1920 UTC 18 January 2019
Temperature: -4.0°C (25°F)
Dewpoint: -6.0°C (21°F) [RH = 86%]
Pressure (altimeter): 30.12 inches Hg (1020.0 mb)
Winds: from the SSW (210 degrees) at 8 MPH (7 knots; 3.6 m/s)
Visibility: 6 or more miles (10+ km)
Ceiling: ceiling and visibility are OK
Clouds: unknown
Weather: no significant weather observed at this time

METAR text: EDDC 181850Z 22008KT CAVOK M04/M06 Q1020 NOSIG
Conditions at: EDDC (DRESDEN/KLOTZSCH, DE) observed 1850 UTC 18 January 2019
Temperature: -4.0°C (25°F)
Dewpoint: -6.0°C (21°F) [RH = 86%]
Pressure (altimeter): 30.12 inches Hg (1020.0 mb)
Winds: from the SW (220 degrees) at 9 MPH (8 knots; 4.1 m/s)
Visibility: 6 or more miles (10+ km)
Ceiling: ceiling and visibility are OK
Clouds: unknown
Weather: no significant weather observed at this time

METAR text: EDDC 181820Z 22007KT CAVOK M03/M06 Q1020 R04/D NOSIG
Conditions at: EDDC (DRESDEN/KLOTZSCH, DE) observed 1820 UTC 18 January 2019
Temperature: -3.0°C (27°F)
Dewpoint: -6.0°C (21°F) [RH = 80%]
Pressure (altimeter): 30.12 inches Hg (1020.0 mb)
Winds: from the SW (220 degrees) at 8 MPH (7 knots; 3.6 m/s)
Visibility: 6 or more miles (10+ km)
Ceiling: ceiling and visibility are OK
Clouds: unknown
Weather: no significant weather observed at this time

METAR text: EDDC 181750Z 24005KT CAVOK M03/M06 Q1019 R04/D NOSIG
Conditions at: EDDC (DRESDEN/KLOTZSCH, DE) observed 1750 UTC 18 January 2019
Temperature: -3.0°C (27°F)
Dewpoint: -6.0°C (21°F) [RH = 80%]
Pressure (altimeter): 30.09 inches Hg (1019.0 mb)
Winds: from the WSW (240 degrees) at 6 MPH (5 knots; 2.6 m/s)
Visibility: 6 or more miles (10+ km)
Ceiling: ceiling and visibility are OK
Clouds: unknown
Weather: no significant weather observed at this time

METAR text: EDDC 181720Z 23005KT CAVOK M03/M06 Q1019 R04/D NOSIG
Conditions at: EDDC (DRESDEN/KLOTZSCH, DE) observed 1720 UTC 18 January 2019
Temperature: -3.0°C (27°F)
Dewpoint: -6.0°C (21°F) [RH = 80%]
Pressure (altimeter): 30.09 inches Hg (1019.0 mb)
Winds: from the SW (230 degrees) at 6 MPH (5 knots; 2.6 m/s)
Visibility: 6 or more miles (10+ km)
Ceiling: ceiling and visibility are OK
Clouds: unknown
Weather: no significant weather observed at this time

METAR text: EDDC 181650Z 25005KT 210V280 CAVOK M02/M06 Q1019 R04/D NOSIG
Conditions at: EDDC (DRESDEN/KLOTZSCH, DE) observed 1650 UTC 18 January 2019
Temperature: -2.0°C (28°F)
Dewpoint: -6.0°C (21°F) [RH = 74%]
Pressure (altimeter): 30.09 inches Hg (1019.0 mb)
Winds: from the WSW (250 degrees) at 6 MPH (5 knots; 2.6 m/s)
Visibility: 6 or more miles (10+ km)
Ceiling: ceiling and visibility are OK
Clouds: unknown
Weather: no significant weather observed at this time

METAR text: EDDC 181620Z 24003KT CAVOK M02/M06 Q1019 R04/D NOSIG
Conditions at: EDDC (DRESDEN/KLOTZSCH, DE) observed 1620 UTC 18 January 2019
Temperature: -2.0°C (28°F)
Dewpoint: -6.0°C (21°F) [RH = 74%]
Pressure (altimeter): 30.09 inches Hg (1019.0 mb)
Winds: from the WSW (240 degrees) at 3 MPH (3 knots; 1.5 m/s)
Visibility: 6 or more miles (10+ km)
Ceiling: ceiling and visibility are OK
Clouds: unknown
Weather: no significant weather observed at this time

METAR text: EDDC 181550Z 25006KT CAVOK M01/M06 Q1019 R04/D NOSIG
Conditions at: EDDC (DRESDEN/KLOTZSCH, DE) observed 1550 UTC 18 January 2019
Temperature: -1.0°C (30°F)
Dewpoint: -6.0°C (21°F) [RH = 69%]
Pressure (altimeter): 30.09 inches Hg (1019.0 mb)
Winds: from the WSW (250 degrees) at 7 MPH (6 knots; 3.1 m/s)
Visibility: 6 or more miles (10+ km)
Ceiling: ceiling and visibility are OK
Clouds: unknown
Weather: no significant weather observed at this time

METAR text: EDDC 181520Z 25005KT 220V300 CAVOK M01/M05 Q1019 R04/29//95 NOSIG
Conditions at: EDDC (DRESDEN/KLOTZSCH, DE) observed 1520 UTC 18 January 2019
Temperature: -1.0°C (30°F)
Dewpoint: -5.0°C (23°F) [RH = 74%]
Pressure (altimeter): 30.09 inches Hg (1019.0 mb)
Winds: from the WSW (250 degrees) at 6 MPH (5 knots; 2.6 m/s)
Visibility: 6 or more miles (10+ km)
Ceiling: ceiling and visibility are OK
Clouds: unknown
Weather: no significant weather observed at this time

METAR text: EDDC 181450Z 25006KT CAVOK M01/M06 Q1019 R04/29//95 NOSIG
Conditions at: EDDC (DRESDEN/KLOTZSCH, DE) observed 1450 UTC 18 January 2019
Temperature: -1.0°C (30°F)
Dewpoint: -6.0°C (21°F) [RH = 69%]
Pressure (altimeter): 30.09 inches Hg (1019.0 mb)
Winds: from the WSW (250 degrees) at 7 MPH (6 knots; 3.1 m/s)
Visibility: 6 or more miles (10+ km)
Ceiling: ceiling and visibility are OK
Clouds: unknown
Weather: no significant weather observed at this time

METAR text: EDDC 181420Z 27007KT 250V310 9999 FEW026 M01/M05 Q1019 R04/29//95 NOSIG
Conditions at: EDDC (DRESDEN/KLOTZSCH, DE) observed 1420 UTC 18 January 2019
Temperature: -1.0°C (30°F)
Dewpoint: -5.0°C (23°F) [RH = 74%]
Pressure (altimeter): 30.09 inches Hg (1019.0 mb)
Winds: from the W (270 degrees) at 8 MPH (7 knots; 3.6 m/s)
Visibility: 6 or more miles (10+ km)
Ceiling: at least 12,000 feet AGL
Clouds: few clouds at 2600 feet AGL
Weather: no significant weather observed at this time

METAR text: EDDC 181350Z 28005KT 240V310 9999 SCT026 M01/M05 Q1018 R04/29//95 NOSIG
Conditions at: EDDC (DRESDEN/KLOTZSCH, DE) observed 1350 UTC 18 January 2019
Temperature: -1.0°C (30°F)
Dewpoint: -5.0°C (23°F) [RH = 74%]
Pressure (altimeter): 30.06 inches Hg (1018.0 mb)
Winds: from the W (280 degrees) at 6 MPH (5 knots; 2.6 m/s)
Visibility: 6 or more miles (10+ km)
Ceiling: at least 12,000 feet AGL
Clouds: scattered clouds at 2600 feet AGL
Weather: no significant weather observed at this time

METAR text: EDDC 181320Z 28006KT 240V320 9999 SCT026 M01/M05 Q1018 R04/29//95 NOSIG
Conditions at: EDDC (DRESDEN/KLOTZSCH, DE) observed 1320 UTC 18 January 2019
Temperature: -1.0°C (30°F)
Dewpoint: -5.0°C (23°F) [RH = 74%]
Pressure (altimeter): 30.06 inches Hg (1018.0 mb)
Winds: from the W (280 degrees) at 7 MPH (6 knots; 3.1 m/s)
Visibility: 6 or more miles (10+ km)
Ceiling: at least 12,000 feet AGL
Clouds: scattered clouds at 2600 feet AGL
Weather: no significant weather observed at this time

METAR text: EDDC 181250Z 30007KT 240V330 9999 BKN026 M01/M05 Q1018 R04/29//95 NOSIG
Conditions at: EDDC (DRESDEN/KLOTZSCH, DE) observed 1250 UTC 18 January 2019
Temperature: -1.0°C (30°F)
Dewpoint: -5.0°C (23°F) [RH = 74%]
Pressure (altimeter): 30.06 inches Hg (1018.0 mb)
Winds: from the WNW (300 degrees) at 8 MPH (7 knots; 3.6 m/s)
Visibility: 6 or more miles (10+ km)
Ceiling: 2600 feet AGL
Clouds: broken clouds at 2600 feet AGL
Weather: no significant weather observed at this time

METAR text: EDDC 181220Z 27009KT 240V320 9999 BKN027 M01/M06 Q1018 R04/29//95 NOSIG
Conditions at: EDDC (DRESDEN/KLOTZSCH, DE) observed 1220 UTC 18 January 2019
Temperature: -1.0°C (30°F)
Dewpoint: -6.0°C (21°F) [RH = 69%]
Pressure (altimeter): 30.06 inches Hg (1018.0 mb)
Winds: from the W (270 degrees) at 10 MPH (9 knots; 4.6 m/s)
Visibility: 6 or more miles (10+ km)
Ceiling: 2700 feet AGL
Clouds: broken clouds at 2700 feet AGL
Weather: no significant weather observed at this time

METAR text: EDDC 181150Z 30010KT 270V330 9999 FEW022 BKN028 M01/M06 Q1018 R04/29//95 NOSIG
Conditions at: EDDC (DRESDEN/KLOTZSCH, DE) observed 1150 UTC 18 January 2019
Temperature: -1.0°C (30°F)
Dewpoint: -6.0°C (21°F) [RH = 69%]
Pressure (altimeter): 30.06 inches Hg (1018.0 mb)
Winds: from the WNW (300 degrees) at 12 MPH (10 knots; 5.1 m/s)
Visibility: 6 or more miles (10+ km)
Ceiling: 2800 feet AGL
Clouds: few clouds at 2200 feet AGL
broken clouds at 2800 feet AGL
Weather: no significant weather observed at this time

METAR text: EDDC 181120Z 29010KT 250V330 9999 FEW019 BKN027 M01/M05 Q1018 R04/29//95 NOSIG
Conditions at: EDDC (DRESDEN/KLOTZSCH, DE) observed 1120 UTC 18 January 2019
Temperature: -1.0°C (30°F)
Dewpoint: -5.0°C (23°F) [RH = 74%]
Pressure (altimeter): 30.06 inches Hg (1018.0 mb)
Winds: from the WNW (290 degrees) at 12 MPH (10 knots; 5.1 m/s)
Visibility: 6 or more miles (10+ km)
Ceiling: 2700 feet AGL
Clouds: few clouds at 1900 feet AGL
broken clouds at 2700 feet AGL
Weather: no significant weather observed at this time

METAR text: EDDC 181050Z 29009KT 250V320 9999 SCT023 BKN028 M01/M05 Q1017 R04/29//95 NOSIG
Conditions at: EDDC (DRESDEN/KLOTZSCH, DE) observed 1050 UTC 18 January 2019
Temperature: -1.0°C (30°F)
Dewpoint: -5.0°C (23°F) [RH = 74%]
Pressure (altimeter): 30.03 inches Hg (1017.0 mb)
Winds: from the WNW (290 degrees) at 10 MPH (9 knots; 4.6 m/s)
Visibility: 6 or more miles (10+ km)
Ceiling: 2800 feet AGL
Clouds: scattered clouds at 2300 feet AGL
broken clouds at 2800 feet AGL
Weather: no significant weather observed at this time

METAR text: EDDC 181020Z 33009KT 9999 FEW027 BKN031 M01/M06 Q1017 R04/29//95 NOSIG
Conditions at: EDDC (DRESDEN/KLOTZSCH, DE) observed 1020 UTC 18 January 2019
Temperature: -1.0°C (30°F)
Dewpoint: -6.0°C (21°F) [RH = 69%]
Pressure (altimeter): 30.03 inches Hg (1017.0 mb)
Winds: from the NNW (330 degrees) at 10 MPH (9 knots; 4.6 m/s)
Visibility: 6 or more miles (10+ km)
Ceiling: 3100 feet AGL
Clouds: few clouds at 2700 feet AGL
broken clouds at 3100 feet AGL
Weather: no significant weather observed at this time

METAR text: EDDC 180950Z 32012KT 290V350 9999 SCT025 BKN032 M01/M06 Q1017 R04/29//95 TEMPO 31015G25KT
Conditions at: EDDC (DRESDEN/KLOTZSCH, DE) observed 0950 UTC 18 January 2019
Temperature: -1.0°C (30°F)
Dewpoint: -6.0°C (21°F) [RH = 69%]
Pressure (altimeter): 30.03 inches Hg (1017.0 mb)
Winds: from the NW (320 degrees) at 14 MPH (12 knots; 6.2 m/s)
Visibility: 6 or more miles (10+ km)
Ceiling: 3200 feet AGL
Clouds: scattered clouds at 2500 feet AGL
broken clouds at 3200 feet AGL
Weather: no significant weather observed at this time

METAR text: EDDC 180920Z 31013KT 270V340 9999 SCT020 BKN033 M01/M05 Q1016 R04/29//95 TEMPO 31015G25KT
Conditions at: EDDC (DRESDEN/KLOTZSCH, DE) observed 0920 UTC 18 January 2019
Temperature: -1.0°C (30°F)
Dewpoint: -5.0°C (23°F) [RH = 74%]
Pressure (altimeter): 30.00 inches Hg (1016.0 mb)
Winds: from the NW (310 degrees) at 15 MPH (13 knots; 6.7 m/s)
Visibility: 6 or more miles (10+ km)
Ceiling: 3300 feet AGL
Clouds: scattered clouds at 2000 feet AGL
broken clouds at 3300 feet AGL
Weather: no significant weather observed at this time

METAR text: EDDC 180850Z 31014KT 280V350 9999 -SHSN SCT017 BKN033 M01/M04 Q1015 R04/29//95 TEMPO 31015G25KT
Conditions at: EDDC (DRESDEN/KLOTZSCH, DE) observed 0850 UTC 18 January 2019
Temperature: -1.0°C (30°F)
Dewpoint: -4.0°C (25°F) [RH = 80%]
Pressure (altimeter): 29.97 inches Hg (1015.0 mb)
Winds: from the NW (310 degrees) at 16 MPH (14 knots; 7.2 m/s)
Visibility: 6 or more miles (10+ km)
Ceiling: 3300 feet AGL
Clouds: scattered clouds at 1700 feet AGL
broken clouds at 3300 feet AGL
Weather: -SHSN  (light snow showers)

METAR text: EDDC 180820Z 30009G19KT 260V330 9999 SCT017 BKN038 M01/M04 Q1015 R04/29//95 NOSIG
Conditions at: EDDC (DRESDEN/KLOTZSCH, DE) observed 0820 UTC 18 January 2019
Temperature: -1.0°C (30°F)
Dewpoint: -4.0°C (25°F) [RH = 80%]
Pressure (altimeter): 29.97 inches Hg (1015.0 mb)
Winds: from the WNW (300 degrees) at 10 MPH (9 knots; 4.6 m/s)
gusting to 22 MPH (19 knots; 9.8 m/s)
Visibility: 6 or more miles (10+ km)
Ceiling: 3800 feet AGL
Clouds: scattered clouds at 1700 feet AGL
broken clouds at 3800 feet AGL
Weather: no significant weather observed at this time

METAR text: EDDC 180750Z 30013KT 9999 FEW016 BKN041 M01/M03 Q1014 R04/29//95 NOSIG
Conditions at: EDDC (DRESDEN/KLOTZSCH, DE) observed 0750 UTC 18 January 2019
Temperature: -1.0°C (30°F)
Dewpoint: -3.0°C (27°F) [RH = 86%]
Pressure (altimeter): 29.94 inches Hg (1014.0 mb)
Winds: from the WNW (300 degrees) at 15 MPH (13 knots; 6.7 m/s)
Visibility: 6 or more miles (10+ km)
Ceiling: 4100 feet AGL
Clouds: few clouds at 1600 feet AGL
broken clouds at 4100 feet AGL
Weather: no significant weather observed at this time

METAR text: EDDC 180720Z 29008KT 250V310 9999 SCT011 BKN015 BKN037 M01/M02 Q1013 R04/29//95 NOSIG
Conditions at: EDDC (DRESDEN/KLOTZSCH, DE) observed 0720 UTC 18 January 2019
Temperature: -1.0°C (30°F)
Dewpoint: -2.0°C (28°F) [RH = 93%]
Pressure (altimeter): 29.91 inches Hg (1013.0 mb)
Winds: from the WNW (290 degrees) at 9 MPH (8 knots; 4.1 m/s)
Visibility: 6 or more miles (10+ km)
Ceiling: 1500 feet AGL
Clouds: scattered clouds at 1100 feet AGL
broken clouds at 1500 feet AGL
broken clouds at 3700 feet AGL
Weather: no significant weather observed at this time

METAR text: EDDC 180650Z 30007KT 260V320 9999 SCT011 BKN015 BKN037 M01/M02 Q1012 R04/29//95 NOSIG
Conditions at: EDDC (DRESDEN/KLOTZSCH, DE) observed 0650 UTC 18 January 2019
Temperature: -1.0°C (30°F)
Dewpoint: -2.0°C (28°F) [RH = 93%]
Pressure (altimeter): 29.88 inches Hg (1012.0 mb)
Winds: from the WNW (300 degrees) at 8 MPH (7 knots; 3.6 m/s)
Visibility: 6 or more miles (10+ km)
Ceiling: 1500 feet AGL
Clouds: scattered clouds at 1100 feet AGL
broken clouds at 1500 feet AGL
broken clouds at 3700 feet AGL
Weather: no significant weather observed at this time

METAR text: EDDC 180620Z 32008KT 290V350 9999 SCT014 BKN017 M01/M02 Q1012 TEMPO 32015G25KT
Conditions at: EDDC (DRESDEN/KLOTZSCH, DE) observed 0620 UTC 18 January 2019
Temperature: -1.0°C (30°F)
Dewpoint: -2.0°C (28°F) [RH = 93%]
Pressure (altimeter): 29.88 inches Hg (1012.0 mb)
Winds: from the NW (320 degrees) at 9 MPH (8 knots; 4.1 m/s)
Visibility: 6 or more miles (10+ km)
Ceiling: 1700 feet AGL
Clouds: scattered clouds at 1400 feet AGL
broken clouds at 1700 feet AGL
Weather: no significant weather observed at this time

METAR text: EDDC 180550Z 33009KT 9999 -SHSN SCT015 SCT049 M01/M03 Q1011 TEMPO 32015G25KT 2500 SHSN BKN008
Conditions at: EDDC (DRESDEN/KLOTZSCH, DE) observed 0550 UTC 18 January 2019
Temperature: -1.0°C (30°F)
Dewpoint: -3.0°C (27°F) [RH = 86%]
Pressure (altimeter): 29.85 inches Hg (1011.0 mb)
Winds: from the NNW (330 degrees) at 10 MPH (9 knots; 4.6 m/s)
Visibility: 6 or more miles (10+ km)
Ceiling: at least 12,000 feet AGL
Clouds: scattered clouds at 1500 feet AGL
scattered clouds at 4900 feet AGL
Weather: -SHSN  (light snow showers)

METAR text: EDDC 180520Z 33010KT 300V360 9999 -SHSN SCT013 BKN025CB M01/M01 Q1010 RESHSN TEMPO 32015G25KT 2500 SHSN BKN008
Conditions at: EDDC (DRESDEN/KLOTZSCH, DE) observed 0520 UTC 18 January 2019
Temperature: -1.0°C (30°F)
Dewpoint: -1.0°C (30°F) [RH = 100%]
Pressure (altimeter): 29.82 inches Hg (1010.0 mb)
Winds: from the NNW (330 degrees) at 12 MPH (10 knots; 5.1 m/s)
Visibility: 6 or more miles (10+ km)
Ceiling: 2500 feet AGL
Clouds: scattered clouds at 1300 feet AGL
broken clouds at 2500 feet AGL
Weather: -SHSN  (light snow showers)

METAR text: EDDC 180450Z 29011KT 250V310 9999 -SHGS BKN015CB 00/M01 Q1009 TEMPO 29015G25KT 2500 SHSN BKN008
Conditions at: EDDC (DRESDEN/KLOTZSCH, DE) observed 0450 UTC 18 January 2019
Temperature: 0.0°C (32°F)
Dewpoint: -1.0°C (30°F) [RH = 93%]
Pressure (altimeter): 29.79 inches Hg (1009.0 mb)
Winds: from the WNW (290 degrees) at 13 MPH (11 knots; 5.7 m/s)
Visibility: 6 or more miles (10+ km)
Ceiling: 1500 feet AGL
Clouds: broken clouds at 1500 feet AGL
Weather: -SHGS  (unknown weather)

METAR text: EDDC 180420Z 28010KT 240V310 9999 -SHGS SCT023TCU 01/M01 Q1009
Conditions at: EDDC (DRESDEN/KLOTZSCH, DE) observed 0420 UTC 18 January 2019
Temperature: 1.0°C (34°F)
Dewpoint: -1.0°C (30°F) [RH = 86%]
Pressure (altimeter): 29.79 inches Hg (1009.0 mb)
Winds: from the W (280 degrees) at 12 MPH (10 knots; 5.1 m/s)
Visibility: 6 or more miles (10+ km)
Ceiling: at least 12,000 feet AGL
Clouds: scattered clouds at 2300 feet AGL
Weather: -SHGS  (unknown weather)

METAR text: EDDC 180350Z 27012KT 250V320 9999 FEW019 BKN049 01/M02 Q1008
Conditions at: EDDC (DRESDEN/KLOTZSCH, DE) observed 0350 UTC 18 January 2019
Temperature: 1.0°C (34°F)
Dewpoint: -2.0°C (28°F) [RH = 80%]
Pressure (altimeter): 29.76 inches Hg (1008.0 mb)
Winds: from the W (270 degrees) at 14 MPH (12 knots; 6.2 m/s)
Visibility: 6 or more miles (10+ km)
Ceiling: 4900 feet AGL
Clouds: few clouds at 1900 feet AGL
broken clouds at 4900 feet AGL
Weather: no significant weather observed at this time

METAR text: EDDC 180320Z 27012KT 200V320 9999 -SHGS SCT022TCU BKN046 01/M02 Q1008
Conditions at: EDDC (DRESDEN/KLOTZSCH, DE) observed 0320 UTC 18 January 2019
Temperature: 1.0°C (34°F)
Dewpoint: -2.0°C (28°F) [RH = 80%]
Pressure (altimeter): 29.76 inches Hg (1008.0 mb)
Winds: from the W (270 degrees) at 14 MPH (12 knots; 6.2 m/s)
Visibility: 6 or more miles (10+ km)
Ceiling: 4600 feet AGL
Clouds: scattered clouds at 2200 feet AGL
broken clouds at 4600 feet AGL
Weather: -SHGS  (unknown weather)

METAR text: EDDC 180250Z 28012G22KT 250V310 9999 FEW023 01/M02 Q1008
Conditions at: EDDC (DRESDEN/KLOTZSCH, DE) observed 0250 UTC 18 January 2019
Temperature: 1.0°C (34°F)
Dewpoint: -2.0°C (28°F) [RH = 80%]
Pressure (altimeter): 29.76 inches Hg (1008.0 mb)
Winds: from the W (280 degrees) at 14 MPH (12 knots; 6.2 m/s)
gusting to 25 MPH (22 knots; 11.3 m/s)
Visibility: 6 or more miles (10+ km)
Ceiling: at least 12,000 feet AGL
Clouds: few clouds at 2300 feet AGL
Weather: no significant weather observed at this time

METAR text: EDDC 180220Z 27012G22KT 240V310 9999 SCT024 01/M02 Q1007
Conditions at: EDDC (DRESDEN/KLOTZSCH, DE) observed 0220 UTC 18 January 2019
Temperature: 1.0°C (34°F)
Dewpoint: -2.0°C (28°F) [RH = 80%]
Pressure (altimeter): 29.73 inches Hg (1007.0 mb)
Winds: from the W (270 degrees) at 14 MPH (12 knots; 6.2 m/s)
gusting to 25 MPH (22 knots; 11.3 m/s)
Visibility: 6 or more miles (10+ km)
Ceiling: at least 12,000 feet AGL
Clouds: scattered clouds at 2400 feet AGL
Weather: no significant weather observed at this time

METAR text: EDDC 180150Z 27012KT 240V300 9999 FEW019 02/M02 Q1007
Conditions at: EDDC (DRESDEN/KLOTZSCH, DE) observed 0150 UTC 18 January 2019
Temperature: 2.0°C (36°F)
Dewpoint: -2.0°C (28°F) [RH = 75%]
Pressure (altimeter): 29.73 inches Hg (1007.0 mb)
Winds: from the W (270 degrees) at 14 MPH (12 knots; 6.2 m/s)
Visibility: 6 or more miles (10+ km)
Ceiling: at least 12,000 feet AGL
Clouds: few clouds at 1900 feet AGL
Weather: no significant weather observed at this time

METAR text: EDDC 180120Z 26011KT 230V300 9999 BKN045 02/M02 Q1007
Conditions at: EDDC (DRESDEN/KLOTZSCH, DE) observed 0120 UTC 18 January 2019
Temperature: 2.0°C (36°F)
Dewpoint: -2.0°C (28°F) [RH = 75%]
Pressure (altimeter): 29.73 inches Hg (1007.0 mb)
Winds: from the W (260 degrees) at 13 MPH (11 knots; 5.7 m/s)
Visibility: 6 or more miles (10+ km)
Ceiling: 4500 feet AGL
Clouds: broken clouds at 4500 feet AGL
Weather: no significant weather observed at this time

METAR text: EDDC 180050Z 26010KT 230V290 9999 BKN041 01/M02 Q1006
Conditions at: EDDC (DRESDEN/KLOTZSCH, DE) observed 0050 UTC 18 January 2019
Temperature: 1.0°C (34°F)
Dewpoint: -2.0°C (28°F) [RH = 80%]
Pressure (altimeter): 29.70 inches Hg (1006.0 mb)
Winds: from the W (260 degrees) at 12 MPH (10 knots; 5.1 m/s)
Visibility: 6 or more miles (10+ km)
Ceiling: 4100 feet AGL
Clouds: broken clouds at 4100 feet AGL
Weather: no significant weather observed at this time

METAR text: EDDC 180020Z 27010KT 230V310 9999 FEW031 01/M02 Q1006
Conditions at: EDDC (DRESDEN/KLOTZSCH, DE) observed 0020 UTC 18 January 2019
Temperature: 1.0°C (34°F)
Dewpoint: -2.0°C (28°F) [RH = 80%]
Pressure (altimeter): 29.70 inches Hg (1006.0 mb)
Winds: from the W (270 degrees) at 12 MPH (10 knots; 5.1 m/s)
Visibility: 6 or more miles (10+ km)
Ceiling: at least 12,000 feet AGL
Clouds: few clouds at 3100 feet AGL
Weather: no significant weather observed at this time

Forecast for: EDDC (DRESDEN/KLOTZSCH, DE)
Text: TAF EDDC 191100Z 1912/2012 13005KT CAVOK
Forecast period: 1200 UTC 19 January 2019 to 1200 UTC 20 January 2019
Forecast type: FROM: standard forecast or significant change
Winds: from the SE (130 degrees) at 6 MPH (5 knots; 2.6 m/s)
Visibility: 6 or more miles 10+ km)
Ceiling: unknown
Clouds: missing
Weather: NSW  (no significant weather)